This is the latest recevied weather packets stored in our database for station/object EW8324. If no packets are shown the sender has not sent any weather packets the latest 1 day(s).
| Time | Temp. | Humidity | Pressure | Rain* | Wind** | Luminosity | Snow |
|---|---|---|---|---|---|---|---|
| 1778084552 | 27.22° C | 84% | 1006.3 hPa | 0 mm | - | 197 W/m² | - |
| 1778084248 | 27.22° C | 84% | 1006.3 hPa | 0 mm | - | 135 W/m² | - |
| 1778083711 | 27.22° C | 84% | 1006.1 hPa | 0 mm | - | 111 W/m² | - |
| 1778083366 | 27.22° C | 84% | 1006 hPa | 0 mm | - | 90 W/m² | - |
| 1778082818 | 26.67° C | 84% | 1006.1 hPa | 0 mm | - | 102 W/m² | - |
| 1778081248 | 26.67° C | 84% | 1006 hPa | 0 mm | - | 106 W/m² | - |
| 1778080955 | 26.67° C | 84% | 1005.9 hPa | 0 mm | - | 48 W/m² | - |
| 1778080354 | 26.67° C | 84% | 1005.8 hPa | 0 mm | - | 90 W/m² | - |
| 1778079750 | 26.67° C | 84% | 1005.6 hPa | 0 mm | - | 125 W/m² | - |
| 1778078847 | 26.11° C | 83% | 1005.6 hPa | 0 mm | - | 102 W/m² | - |
| 1778078260 | 26.11° C | 82% | 1005.3 hPa | 0 mm | - | 137 W/m² | - |
| 1778078012 | 25.56° C | 82% | 1005.3 hPa | 0 mm | - | 125 W/m² | - |
| 1778075546 | 25° C | 77% | 1005.5 hPa | 0 mm | - | 86 W/m² | - |
| 1778074346 | 25° C | 75% | 1005.5 hPa | 0 mm | - | 32 W/m² | - |
| 1778074045 | 25° C | 74% | 1005.6 hPa | 0 mm | - | 48 W/m² | - |
| 1778073744 | 25° C | 74% | 1005.6 hPa | 0 mm | - | 35 W/m² | - |
| 1778073459 | 25° C | 73% | 1005.6 hPa | 0 mm | - | 42 W/m² | - |
| 1778072546 | 24.44° C | 74% | 1005.6 hPa | 0 mm | - | 42 W/m² | - |
| 1778072244 | 24.44° C | 73% | 1005.5 hPa | 0 mm | - | 37 W/m² | - |
| 1778070503 | 24.44° C | 76% | 1005.3 hPa | 0 mm | - | 25 W/m² | - |
| 1778069536 | 24.44° C | 78% | 1005.3 hPa | 0 mm | - | 12 W/m² | - |
| 1778068930 | 24.44° C | 79% | 1005.1 hPa | 0 mm | - | 7 W/m² | - |
| 1778067111 | 24.44° C | 80% | 1004.8 hPa | 0 mm | - | 0 W/m² | - |
| 1778066804 | 24.44° C | 80% | 1004.8 hPa | 0 mm | - | 0 W/m² | - |
| 1778066505 | 24.44° C | 80% | 1004.7 hPa | 0 mm | - | 0 W/m² | - |
* Rain latest hour (hover to see other rain measurements)
** Current wind speed in m/s (hover to see current wind gust speed)